sensor_id;sensor_type;location;lat;lon;timestamp;temperature;humidity
66102;HTU21D;52883;51.094;5.880;2023-02-21T00:01:50;8.70;118.99
66102;HTU21D;52883;51.094;5.880;2023-02-21T00:04:34;8.68;118.99
66102;HTU21D;52883;51.094;5.880;2023-02-21T00:07:19;8.63;118.99
66102;HTU21D;52883;51.094;5.880;2023-02-21T00:10:05;8.60;118.99
66102;HTU21D;52883;51.094;5.880;2023-02-21T00:12:50;8.56;118.99
66102;HTU21D;52883;51.094;5.880;2023-02-21T00:15:34;8.49;118.99
66102;HTU21D;52883;51.094;5.880;2023-02-21T00:18:19;8.48;118.99
66102;HTU21D;52883;51.094;5.880;2023-02-21T00:21:04;8.46;118.99
66102;HTU21D;52883;51.094;5.880;2023-02-21T00:23:48;8.45;118.99
66102;HTU21D;52883;51.094;5.880;2023-02-21T00:26:33;8.43;118.99
66102;HTU21D;52883;51.094;5.880;2023-02-21T00:29:17;8.42;118.99
66102;HTU21D;52883;51.094;5.880;2023-02-21T00:32:01;8.41;118.99
66102;HTU21D;52883;51.094;5.880;2023-02-21T00:34:45;8.42;118.99
66102;HTU21D;52883;51.094;5.880;2023-02-21T00:37:29;8.37;118.99
66102;HTU21D;52883;51.094;5.880;2023-02-21T00:40:15;8.34;118.99
66102;HTU21D;52883;51.094;5.880;2023-02-21T00:43:00;8.34;118.99
66102;HTU21D;52883;51.094;5.880;2023-02-21T00:45:47;8.33;118.99
66102;HTU21D;52883;51.094;5.880;2023-02-21T00:48:31;8.34;118.99
66102;HTU21D;52883;51.094;5.880;2023-02-21T00:51:17;8.34;118.99
66102;HTU21D;52883;51.094;5.880;2023-02-21T00:54:01;8.31;118.99
66102;HTU21D;52883;51.094;5.880;2023-02-21T00:56:45;8.28;118.99
66102;HTU21D;52883;51.094;5.880;2023-02-21T00:59:29;8.28;118.99
66102;HTU21D;52883;51.094;5.880;2023-02-21T01:02:14;8.27;118.99
66102;HTU21D;52883;51.094;5.880;2023-02-21T01:04:58;8.30;118.99
66102;HTU21D;52883;51.094;5.880;2023-02-21T01:07:42;8.28;118.99
66102;HTU21D;52883;51.094;5.880;2023-02-21T01:10:26;8.30;118.99
66102;HTU21D;52883;51.094;5.880;2023-02-21T01:13:11;8.30;118.99
66102;HTU21D;52883;51.094;5.880;2023-02-21T01:15:55;8.30;118.99
66102;HTU21D;52883;51.094;5.880;2023-02-21T01:18:39;8.30;118.99
66102;HTU21D;52883;51.094;5.880;2023-02-21T01:21:23;8.33;118.99
66102;HTU21D;52883;51.094;5.880;2023-02-21T01:24:12;8.35;118.99
66102;HTU21D;52883;51.094;5.880;2023-02-21T01:26:57;8.36;118.99
66102;HTU21D;52883;51.094;5.880;2023-02-21T01:29:41;8.35;118.99
66102;HTU21D;52883;51.094;5.880;2023-02-21T01:32:26;8.31;118.99
66102;HTU21D;52883;51.094;5.880;2023-02-21T01:35:10;8.32;118.99
66102;HTU21D;52883;51.094;5.880;2023-02-21T01:37:56;8.32;118.99
66102;HTU21D;52883;51.094;5.880;2023-02-21T01:40:40;8.33;118.99
66102;HTU21D;52883;51.094;5.880;2023-02-21T01:43:26;8.35;118.99
66102;HTU21D;52883;51.094;5.880;2023-02-21T01:46:16;8.34;118.99
66102;HTU21D;52883;51.094;5.880;2023-02-21T01:49:07;8.35;118.99
66102;HTU21D;52883;51.094;5.880;2023-02-21T01:51:52;8.35;118.99
66102;HTU21D;52883;51.094;5.880;2023-02-21T01:54:41;8.31;118.99
66102;HTU21D;52883;51.094;5.880;2023-02-21T01:57:27;8.29;118.99
66102;HTU21D;52883;51.094;5.880;2023-02-21T02:00:14;8.28;118.99
66102;HTU21D;52883;51.094;5.880;2023-02-21T02:03:08;8.29;118.99
66102;HTU21D;52883;51.094;5.880;2023-02-21T02:06:06;8.30;118.99
66102;HTU21D;52883;51.094;5.880;2023-02-21T02:08:50;8.29;118.99
66102;HTU21D;52883;51.094;5.880;2023-02-21T02:20:23;8.28;118.99
66102;HTU21D;52883;51.094;5.880;2023-02-21T02:36:55;8.29;118.99
66102;HTU21D;52883;51.094;5.880;2023-02-21T02:39:38;8.27;118.99
66102;HTU21D;52883;51.094;5.880;2023-02-21T02:42:25;8.27;118.99
66102;HTU21D;52883;51.094;5.880;2023-02-21T02:45:00;8.22;118.99
66102;HTU21D;52883;51.094;5.880;2023-02-21T02:47:35;8.23;118.99
66102;HTU21D;52883;51.094;5.880;2023-02-21T02:50:05;8.27;118.99
66102;HTU21D;52883;51.094;5.880;2023-02-21T02:52:34;8.24;118.99
66102;HTU21D;52883;51.094;5.880;2023-02-21T02:55:19;8.24;118.99
66102;HTU21D;52883;51.094;5.880;2023-02-21T02:57:47;8.24;118.99
66102;HTU21D;52883;51.094;5.880;2023-02-21T03:00:16;8.27;118.99
66102;HTU21D;52883;51.094;5.880;2023-02-21T03:08:55;8.22;118.99
66102;HTU21D;52883;51.094;5.880;2023-02-21T03:11:26;8.23;118.99
66102;HTU21D;52883;51.094;5.880;2023-02-21T03:16:42;8.19;118.99
66102;HTU21D;52883;51.094;5.880;2023-02-21T03:19:16;8.18;118.99
66102;HTU21D;52883;51.094;5.880;2023-02-21T03:21:48;8.21;118.99
66102;HTU21D;52883;51.094;5.880;2023-02-21T03:24:18;8.19;118.99
66102;HTU21D;52883;51.094;5.880;2023-02-21T03:26:48;8.21;118.99
66102;HTU21D;52883;51.094;5.880;2023-02-21T03:29:36;8.23;118.99
66102;HTU21D;52883;51.094;5.880;2023-02-21T03:32:21;8.23;118.99
66102;HTU21D;52883;51.094;5.880;2023-02-21T03:34:49;8.20;118.99
66102;HTU21D;52883;51.094;5.880;2023-02-21T03:37:27;8.20;118.99
66102;HTU21D;52883;51.094;5.880;2023-02-21T03:39:54;8.19;118.99
66102;HTU21D;52883;51.094;5.880;2023-02-21T03:42:20;8.17;118.99
66102;HTU21D;52883;51.094;5.880;2023-02-21T03:44:45;8.17;118.99
66102;HTU21D;52883;51.094;5.880;2023-02-21T03:47:11;8.17;118.99
66102;HTU21D;52883;51.094;5.880;2023-02-21T03:49:37;8.16;118.99
66102;HTU21D;52883;51.094;5.880;2023-02-21T03:52:03;8.15;118.99
66102;HTU21D;52883;51.094;5.880;2023-02-21T03:54:29;8.15;118.99
66102;HTU21D;52883;51.094;5.880;2023-02-21T03:56:57;8.14;118.99
66102;HTU21D;52883;51.094;5.880;2023-02-21T03:59:24;8.11;118.99
66102;HTU21D;52883;51.094;5.880;2023-02-21T04:01:51;8.09;118.99
66102;HTU21D;52883;51.094;5.880;2023-02-21T04:04:18;8.12;118.99
66102;HTU21D;52883;51.094;5.880;2023-02-21T04:06:47;8.07;118.99
66102;HTU21D;52883;51.094;5.880;2023-02-21T04:09:12;8.04;118.99
66102;HTU21D;52883;51.094;5.880;2023-02-21T04:11:42;8.04;118.99
66102;HTU21D;52883;51.094;5.880;2023-02-21T04:14:08;8.06;118.99
66102;HTU21D;52883;51.094;5.880;2023-02-21T04:16:34;8.06;118.99
66102;HTU21D;52883;51.094;5.880;2023-02-21T04:18:59;8.06;118.99
66102;HTU21D;52883;51.094;5.880;2023-02-21T04:21:25;8.07;118.99
66102;HTU21D;52883;51.094;5.880;2023-02-21T04:23:53;8.09;118.99
66102;HTU21D;52883;51.094;5.880;2023-02-21T04:26:21;8.07;118.99
66102;HTU21D;52883;51.094;5.880;2023-02-21T04:28:51;8.09;118.99
66102;HTU21D;52883;51.094;5.880;2023-02-21T04:31:18;8.09;118.99
66102;HTU21D;52883;51.094;5.880;2023-02-21T04:33:44;8.07;118.99
66102;HTU21D;52883;51.094;5.880;2023-02-21T04:36:12;8.08;118.99
66102;HTU21D;52883;51.094;5.880;2023-02-21T04:38:40;8.08;118.99
66102;HTU21D;52883;51.094;5.880;2023-02-21T04:41:06;8.07;118.99
66102;HTU21D;52883;51.094;5.880;2023-02-21T04:43:32;8.05;118.99
66102;HTU21D;52883;51.094;5.880;2023-02-21T04:45:59;8.02;118.99
66102;HTU21D;52883;51.094;5.880;2023-02-21T04:48:25;8.00;118.99
66102;HTU21D;52883;51.094;5.880;2023-02-21T04:50:51;8.02;118.99
66102;HTU21D;52883;51.094;5.880;2023-02-21T04:53:16;8.01;118.99
66102;HTU21D;52883;51.094;5.880;2023-02-21T04:55:42;8.02;118.99
66102;HTU21D;52883;51.094;5.880;2023-02-21T04:58:08;8.03;118.99
66102;HTU21D;52883;51.094;5.880;2023-02-21T05:00:33;8.03;118.99
66102;HTU21D;52883;51.094;5.880;2023-02-21T05:02:59;8.00;118.99
66102;HTU21D;52883;51.094;5.880;2023-02-21T05:05:25;8.00;118.99
66102;HTU21D;52883;51.094;5.880;2023-02-21T05:07:51;7.97;118.99
66102;HTU21D;52883;51.094;5.880;2023-02-21T05:10:17;7.99;118.99
66102;HTU21D;52883;51.094;5.880;2023-02-21T05:12:43;7.97;118.99
66102;HTU21D;52883;51.094;5.880;2023-02-21T05:15:11;7.94;118.99
66102;HTU21D;52883;51.094;5.880;2023-02-21T05:17:37;7.97;118.99
66102;HTU21D;52883;51.094;5.880;2023-02-21T05:20:04;7.96;118.99
66102;HTU21D;52883;51.094;5.880;2023-02-21T05:22:40;7.92;118.99
66102;HTU21D;52883;51.094;5.880;2023-02-21T05:25:13;7.88;118.99
66102;HTU21D;52883;51.094;5.880;2023-02-21T05:27:39;7.87;118.99
66102;HTU21D;52883;51.094;5.880;2023-02-21T05:30:05;7.86;118.99
66102;HTU21D;52883;51.094;5.880;2023-02-21T05:32:31;7.84;118.99
66102;HTU21D;52883;51.094;5.880;2023-02-21T05:34:56;7.84;118.99
66102;HTU21D;52883;51.094;5.880;2023-02-21T05:37:22;7.82;118.99
66102;HTU21D;52883;51.094;5.880;2023-02-21T05:39:48;7.78;118.99
66102;HTU21D;52883;51.094;5.880;2023-02-21T05:42:13;7.77;118.99
66102;HTU21D;52883;51.094;5.880;2023-02-21T05:44:39;7.77;118.99
66102;HTU21D;52883;51.094;5.880;2023-02-21T05:47:04;7.77;118.99
66102;HTU21D;52883;51.094;5.880;2023-02-21T05:49:33;7.76;118.99
66102;HTU21D;52883;51.094;5.880;2023-02-21T05:51:59;7.73;118.99
66102;HTU21D;52883;51.094;5.880;2023-02-21T05:54:24;7.73;118.99
66102;HTU21D;52883;51.094;5.880;2023-02-21T05:56:50;7.75;118.99
66102;HTU21D;52883;51.094;5.880;2023-02-21T05:59:19;7.68;118.99
66102;HTU21D;52883;51.094;5.880;2023-02-21T06:01:46;7.67;118.99
66102;HTU21D;52883;51.094;5.880;2023-02-21T06:04:11;7.68;118.99
66102;HTU21D;52883;51.094;5.880;2023-02-21T06:06:37;7.67;118.99
66102;HTU21D;52883;51.094;5.880;2023-02-21T06:09:04;7.67;118.99
66102;HTU21D;52883;51.094;5.880;2023-02-21T06:11:32;7.70;118.99
66102;HTU21D;52883;51.094;5.880;2023-02-21T06:14:00;7.71;118.99
66102;HTU21D;52883;51.094;5.880;2023-02-21T06:16:31;7.73;118.99
66102;HTU21D;52883;51.094;5.880;2023-02-21T06:18:58;7.74;118.99
66102;HTU21D;52883;51.094;5.880;2023-02-21T06:21:23;7.76;118.99
66102;HTU21D;52883;51.094;5.880;2023-02-21T06:23:49;7.78;118.99
66102;HTU21D;52883;51.094;5.880;2023-02-21T06:26:18;7.78;118.99
66102;HTU21D;52883;51.094;5.880;2023-02-21T06:28:45;7.78;118.99
66102;HTU21D;52883;51.094;5.880;2023-02-21T06:31:11;7.81;118.99
66102;HTU21D;52883;51.094;5.880;2023-02-21T06:33:37;7.82;118.99
66102;HTU21D;52883;51.094;5.880;2023-02-21T06:36:11;7.81;118.99
66102;HTU21D;52883;51.094;5.880;2023-02-21T06:38:37;7.83;118.99
66102;HTU21D;52883;51.094;5.880;2023-02-21T06:41:06;7.79;118.99
66102;HTU21D;52883;51.094;5.880;2023-02-21T06:43:32;7.79;118.99
66102;HTU21D;52883;51.094;5.880;2023-02-21T06:46:01;7.78;118.99
66102;HTU21D;52883;51.094;5.880;2023-02-21T06:48:26;7.79;118.99
66102;HTU21D;52883;51.094;5.880;2023-02-21T06:50:52;7.78;118.99
66102;HTU21D;52883;51.094;5.880;2023-02-21T06:53:17;7.78;118.99
66102;HTU21D;52883;51.094;5.880;2023-02-21T06:55:44;7.82;118.99
66102;HTU21D;52883;51.094;5.880;2023-02-21T06:58:10;7.84;118.99
66102;HTU21D;52883;51.094;5.880;2023-02-21T07:00:35;7.89;118.99
66102;HTU21D;52883;51.094;5.880;2023-02-21T07:03:02;7.91;118.99
66102;HTU21D;52883;51.094;5.880;2023-02-21T07:05:27;7.96;118.99
66102;HTU21D;52883;51.094;5.880;2023-02-21T07:07:54;7.97;118.99
66102;HTU21D;52883;51.094;5.880;2023-02-21T07:10:19;8.01;118.99
66102;HTU21D;52883;51.094;5.880;2023-02-21T07:12:45;8.03;118.99
66102;HTU21D;52883;51.094;5.880;2023-02-21T07:15:11;8.06;118.99
66102;HTU21D;52883;51.094;5.880;2023-02-21T07:17:36;8.08;118.99
66102;HTU21D;52883;51.094;5.880;2023-02-21T07:20:03;8.13;118.99
66102;HTU21D;52883;51.094;5.880;2023-02-21T07:22:29;8.21;118.99
66102;HTU21D;52883;51.094;5.880;2023-02-21T07:24:55;8.22;118.99
66102;HTU21D;52883;51.094;5.880;2023-02-21T07:27:21;8.27;118.99
66102;HTU21D;52883;51.094;5.880;2023-02-21T07:29:48;8.32;118.99
66102;HTU21D;52883;51.094;5.880;2023-02-21T07:32:15;8.38;118.99
66102;HTU21D;52883;51.094;5.880;2023-02-21T07:34:41;8.43;118.99
66102;HTU21D;52883;51.094;5.880;2023-02-21T07:37:07;8.45;118.99
66102;HTU21D;52883;51.094;5.880;2023-02-21T07:39:32;8.47;118.99
66102;HTU21D;52883;51.094;5.880;2023-02-21T07:41:58;8.50;118.99
66102;HTU21D;52883;51.094;5.880;2023-02-21T07:44:28;8.50;118.99
66102;HTU21D;52883;51.094;5.880;2023-02-21T07:46:55;8.52;118.99
66102;HTU21D;52883;51.094;5.880;2023-02-21T07:49:22;8.56;118.99
66102;HTU21D;52883;51.094;5.880;2023-02-21T07:51:48;8.60;118.99
66102;HTU21D;52883;51.094;5.880;2023-02-21T07:54:15;8.65;118.99
66102;HTU21D;52883;51.094;5.880;2023-02-21T07:56:46;8.70;118.99
66102;HTU21D;52883;51.094;5.880;2023-02-21T07:59:12;8.74;118.99
66102;HTU21D;52883;51.094;5.880;2023-02-21T08:01:38;8.71;118.99
66102;HTU21D;52883;51.094;5.880;2023-02-21T08:04:03;8.71;118.99
66102;HTU21D;52883;51.094;5.880;2023-02-21T08:06:30;8.71;118.99
66102;HTU21D;52883;51.094;5.880;2023-02-21T08:08:55;8.71;118.99
66102;HTU21D;52883;51.094;5.880;2023-02-21T08:11:21;8.73;118.99
66102;HTU21D;52883;51.094;5.880;2023-02-21T08:13:46;8.75;118.99
66102;HTU21D;52883;51.094;5.880;2023-02-21T08:16:12;8.78;118.99
66102;HTU21D;52883;51.094;5.880;2023-02-21T08:18:38;8.82;118.99
66102;HTU21D;52883;51.094;5.880;2023-02-21T08:21:08;8.87;118.99
66102;HTU21D;52883;51.094;5.880;2023-02-21T08:23:34;8.90;118.99
66102;HTU21D;52883;51.094;5.880;2023-02-21T08:26:02;8.95;118.99
66102;HTU21D;52883;51.094;5.880;2023-02-21T08:28:27;8.98;118.99
66102;HTU21D;52883;51.094;5.880;2023-02-21T08:30:53;9.00;118.99
66102;HTU21D;52883;51.094;5.880;2023-02-21T08:33:18;9.03;118.99
66102;HTU21D;52883;51.094;5.880;2023-02-21T08:35:44;9.05;118.99
66102;HTU21D;52883;51.094;5.880;2023-02-21T08:38:10;9.09;118.99
66102;HTU21D;52883;51.094;5.880;2023-02-21T08:40:35;9.10;118.99
66102;HTU21D;52883;51.094;5.880;2023-02-21T08:43:01;9.11;118.99
66102;HTU21D;52883;51.094;5.880;2023-02-21T08:45:28;9.12;118.99
66102;HTU21D;52883;51.094;5.880;2023-02-21T08:47:55;9.15;118.99
66102;HTU21D;52883;51.094;5.880;2023-02-21T08:50:22;9.17;118.99
66102;HTU21D;52883;51.094;5.880;2023-02-21T08:52:49;9.19;118.99
66102;HTU21D;52883;51.094;5.880;2023-02-21T08:55:15;9.22;118.99
66102;HTU21D;52883;51.094;5.880;2023-02-21T08:57:41;9.26;118.99
66102;HTU21D;52883;51.094;5.880;2023-02-21T09:00:08;9.23;118.99
66102;HTU21D;52883;51.094;5.880;2023-02-21T09:02:35;9.20;118.99
66102;HTU21D;52883;51.094;5.880;2023-02-21T09:05:16;9.22;118.99
66102;HTU21D;52883;51.094;5.880;2023-02-21T09:07:43;9.26;118.99
66102;HTU21D;52883;51.094;5.880;2023-02-21T09:10:10;9.35;118.99
66102;HTU21D;52883;51.094;5.880;2023-02-21T09:12:37;9.49;118.99
66102;HTU21D;52883;51.094;5.880;2023-02-21T09:15:03;9.57;118.99
66102;HTU21D;52883;51.094;5.880;2023-02-21T09:17:29;9.61;118.99
66102;HTU21D;52883;51.094;5.880;2023-02-21T09:20:04;9.67;118.99
66102;HTU21D;52883;51.094;5.880;2023-02-21T09:22:31;9.76;118.99
66102;HTU21D;52883;51.094;5.880;2023-02-21T09:24:58;9.83;118.99
66102;HTU21D;52883;51.094;5.880;2023-02-21T09:27:24;9.79;118.99
66102;HTU21D;52883;51.094;5.880;2023-02-21T09:30:15;9.78;118.99
66102;HTU21D;52883;51.094;5.880;2023-02-21T09:32:41;9.74;118.99
66102;HTU21D;52883;51.094;5.880;2023-02-21T09:35:08;9.64;118.99
66102;HTU21D;52883;51.094;5.880;2023-02-21T09:37:40;9.64;118.99
66102;HTU21D;52883;51.094;5.880;2023-02-21T09:42:40;9.76;118.99
66102;HTU21D;52883;51.094;5.880;2023-02-21T09:45:14;9.84;118.99
66102;HTU21D;52883;51.094;5.880;2023-02-21T09:47:40;9.97;118.99
66102;HTU21D;52883;51.094;5.880;2023-02-21T09:50:13;10.11;118.99
66102;HTU21D;52883;51.094;5.880;2023-02-21T09:52:40;10.23;118.99
66102;HTU21D;52883;51.094;5.880;2023-02-21T09:57:57;10.59;118.99
66102;HTU21D;52883;51.094;5.880;2023-02-21T10:00:37;10.77;118.99
66102;HTU21D;52883;51.094;5.880;2023-02-21T10:03:25;10.80;118.99
66102;HTU21D;52883;51.094;5.880;2023-02-21T10:11:55;10.98;118.99
66102;HTU21D;52883;51.094;5.880;2023-02-21T10:14:38;11.01;118.99
66102;HTU21D;52883;51.094;5.880;2023-02-21T10:17:34;11.07;118.99
66102;HTU21D;52883;51.094;5.880;2023-02-21T10:20:25;11.04;118.99
66102;HTU21D;52883;51.094;5.880;2023-02-21T10:22:55;10.79;118.99
66102;HTU21D;52883;51.094;5.880;2023-02-21T10:25:30;10.63;118.99
66102;HTU21D;52883;51.094;5.880;2023-02-21T10:27:58;10.53;118.99
66102;HTU21D;52883;51.094;5.880;2023-02-21T10:30:34;10.66;118.99
66102;HTU21D;52883;51.094;5.880;2023-02-21T10:33:01;10.85;118.99
66102;HTU21D;52883;51.094;5.880;2023-02-21T10:35:39;10.82;118.99
66102;HTU21D;52883;51.094;5.880;2023-02-21T10:38:10;10.75;118.99
66102;HTU21D;52883;51.094;5.880;2023-02-21T10:40:43;10.77;118.99
66102;HTU21D;52883;51.094;5.880;2023-02-21T10:43:15;10.78;118.99
66102;HTU21D;52883;51.094;5.880;2023-02-21T10:46:04;10.79;118.99
66102;HTU21D;52883;51.094;5.880;2023-02-21T10:48:37;10.75;118.99
66102;HTU21D;52883;51.094;5.880;2023-02-21T10:51:05;10.83;118.99
66102;HTU21D;52883;51.094;5.880;2023-02-21T10:53:35;10.88;118.99
66102;HTU21D;52883;51.094;5.880;2023-02-21T11:03:52;10.93;118.99
66102;HTU21D;52883;51.094;5.880;2023-02-21T11:06:33;10.96;118.99
66102;HTU21D;52883;51.094;5.880;2023-02-21T11:09:00;11.07;118.99
66102;HTU21D;52883;51.094;5.880;2023-02-21T11:11:38;11.10;118.99
66102;HTU21D;52883;51.094;5.880;2023-02-21T11:14:24;11.07;118.99
66102;HTU21D;52883;51.094;5.880;2023-02-21T11:17:23;10.84;118.99
66102;HTU21D;52883;51.094;5.880;2023-02-21T11:19:54;10.77;118.99
66102;HTU21D;52883;51.094;5.880;2023-02-21T11:25:05;10.90;118.99
66102;HTU21D;52883;51.094;5.880;2023-02-21T11:27:36;11.07;118.99
66102;HTU21D;52883;51.094;5.880;2023-02-21T11:30:13;11.17;118.99
66102;HTU21D;52883;51.094;5.880;2023-02-21T11:32:48;11.30;118.99
66102;HTU21D;52883;51.094;5.880;2023-02-21T11:35:23;11.46;118.99
66102;HTU21D;52883;51.094;5.880;2023-02-21T11:37:59;11.45;118.99
66102;HTU21D;52883;51.094;5.880;2023-02-21T11:43:05;11.39;118.99
66102;HTU21D;52883;51.094;5.880;2023-02-21T11:45:37;11.39;118.99
66102;HTU21D;52883;51.094;5.880;2023-02-21T11:48:12;11.51;118.99
66102;HTU21D;52883;51.094;5.880;2023-02-21T11:50:48;11.58;118.99
66102;HTU21D;52883;51.094;5.880;2023-02-21T11:53:29;11.62;118.99
66102;HTU21D;52883;51.094;5.880;2023-02-21T11:56:10;11.60;118.99
66102;HTU21D;52883;51.094;5.880;2023-02-21T11:59:02;11.52;118.99
66102;HTU21D;52883;51.094;5.880;2023-02-21T12:01:52;11.45;118.99
66102;HTU21D;52883;51.094;5.880;2023-02-21T12:09:57;11.77;118.99
66102;HTU21D;52883;51.094;5.880;2023-02-21T12:24:17;11.22;118.99
66102;HTU21D;52883;51.094;5.880;2023-02-21T12:32:23;10.99;118.99
66102;HTU21D;52883;51.094;5.880;2023-02-21T12:37:55;11.05;118.99
66102;HTU21D;52883;51.094;5.880;2023-02-21T12:40:47;11.04;118.99
66102;HTU21D;52883;51.094;5.880;2023-02-21T12:46:09;11.17;118.99
66102;HTU21D;52883;51.094;5.880;2023-02-21T12:51:21;11.25;118.99
66102;HTU21D;52883;51.094;5.880;2023-02-21T12:54:05;11.29;118.99
66102;HTU21D;52883;51.094;5.880;2023-02-21T12:59:18;11.40;118.99
66102;HTU21D;52883;51.094;5.880;2023-02-21T13:05:06;11.34;118.99
66102;HTU21D;52883;51.094;5.880;2023-02-21T13:07:42;11.31;118.99
66102;HTU21D;52883;51.094;5.880;2023-02-21T13:10:14;11.38;118.99
66102;HTU21D;52883;51.094;5.880;2023-02-21T13:12:53;11.46;118.99
66102;HTU21D;52883;51.094;5.880;2023-02-21T13:15:25;11.56;118.99
66102;HTU21D;52883;51.094;5.880;2023-02-21T13:18:05;11.59;118.99
66102;HTU21D;52883;51.094;5.880;2023-02-21T13:20:41;11.51;118.99
66102;HTU21D;52883;51.094;5.880;2023-02-21T13:28:54;11.48;118.99
66102;HTU21D;52883;51.094;5.880;2023-02-21T13:31:23;11.51;118.99
66102;HTU21D;52883;51.094;5.880;2023-02-21T13:33:53;11.49;118.99
66102;HTU21D;52883;51.094;5.880;2023-02-21T13:36:25;11.53;118.99
66102;HTU21D;52883;51.094;5.880;2023-02-21T13:39:03;11.56;118.99
66102;HTU21D;52883;51.094;5.880;2023-02-21T13:44:37;11.53;118.99
66102;HTU21D;52883;51.094;5.880;2023-02-21T13:47:13;11.37;118.99
66102;HTU21D;52883;51.094;5.880;2023-02-21T13:55:09;11.12;118.99
66102;HTU21D;52883;51.094;5.880;2023-02-21T13:57:39;11.16;118.99
66102;HTU21D;52883;51.094;5.880;2023-02-21T14:08:31;11.22;118.99
66102;HTU21D;52883;51.094;5.880;2023-02-21T14:18:53;11.30;118.99
66102;HTU21D;52883;51.094;5.880;2023-02-21T14:21:35;11.25;118.99
66102;HTU21D;52883;51.094;5.880;2023-02-21T14:24:04;11.15;118.99
66102;HTU21D;52883;51.094;5.880;2023-02-21T14:26:43;11.05;118.99
66102;HTU21D;52883;51.094;5.880;2023-02-21T14:38:15;11.04;118.99
66102;HTU21D;52883;51.094;5.880;2023-02-21T14:53:56;10.80;118.99
66102;HTU21D;52883;51.094;5.880;2023-02-21T15:02:05;10.68;118.99
66102;HTU21D;52883;51.094;5.880;2023-02-21T15:05:01;10.67;118.99
66102;HTU21D;52883;51.094;5.880;2023-02-21T15:10:28;10.57;118.99
66102;HTU21D;52883;51.094;5.880;2023-02-21T15:12:57;10.54;118.99
66102;HTU21D;52883;51.094;5.880;2023-02-21T15:18:00;10.38;118.99
66102;HTU21D;52883;51.094;5.880;2023-02-21T15:20:27;10.33;118.99
66102;HTU21D;52883;51.094;5.880;2023-02-21T15:22:56;10.31;118.99
66102;HTU21D;52883;51.094;5.880;2023-02-21T15:25:22;10.26;118.99
66102;HTU21D;52883;51.094;5.880;2023-02-21T15:30:20;10.07;118.99
66102;HTU21D;52883;51.094;5.880;2023-02-21T15:35:28;10.15;118.99
66102;HTU21D;52883;51.094;5.880;2023-02-21T15:37:56;10.16;118.99
66102;HTU21D;52883;51.094;5.880;2023-02-21T15:40:26;10.14;118.99
66102;HTU21D;52883;51.094;5.880;2023-02-21T15:42:54;10.07;118.99
66102;HTU21D;52883;51.094;5.880;2023-02-21T15:45:43;10.00;118.99
66102;HTU21D;52883;51.094;5.880;2023-02-21T15:48:11;9.82;118.99
66102;HTU21D;52883;51.094;5.880;2023-02-21T15:50:37;9.68;118.99
66102;HTU21D;52883;51.094;5.880;2023-02-21T15:55:43;9.70;118.99
66102;HTU21D;52883;51.094;5.880;2023-02-21T15:58:15;9.69;118.99
66102;HTU21D;52883;51.094;5.880;2023-02-21T16:00:47;9.64;118.99
66102;HTU21D;52883;51.094;5.880;2023-02-21T16:03:31;9.62;118.99
66102;HTU21D;52883;51.094;5.880;2023-02-21T16:06:19;9.55;118.99
66102;HTU21D;52883;51.094;5.880;2023-02-21T16:09:06;9.50;118.99
66102;HTU21D;52883;51.094;5.880;2023-02-21T16:11:58;9.52;118.99
66102;HTU21D;52883;51.094;5.880;2023-02-21T16:19:43;9.40;118.99
66102;HTU21D;52883;51.094;5.880;2023-02-21T16:22:27;9.40;118.99
66102;HTU21D;52883;51.094;5.880;2023-02-21T16:25:12;9.42;118.99
66102;HTU21D;52883;51.094;5.880;2023-02-21T16:27:40;9.46;118.99
66102;HTU21D;52883;51.094;5.880;2023-02-21T16:30:14;9.51;118.99
66102;HTU21D;52883;51.094;5.880;2023-02-21T16:32:43;9.42;118.99
66102;HTU21D;52883;51.094;5.880;2023-02-21T16:35:16;9.38;118.99
66102;HTU21D;52883;51.094;5.880;2023-02-21T16:37:49;9.36;118.99
66102;HTU21D;52883;51.094;5.880;2023-02-21T16:40:19;9.36;118.99
66102;HTU21D;52883;51.094;5.880;2023-02-21T16:42:50;9.30;118.99
66102;HTU21D;52883;51.094;5.880;2023-02-21T16:45:17;9.27;118.99
66102;HTU21D;52883;51.094;5.880;2023-02-21T16:47:43;9.23;118.99
66102;HTU21D;52883;51.094;5.880;2023-02-21T16:50:19;9.18;118.99
66102;HTU21D;52883;51.094;5.880;2023-02-21T16:52:46;9.16;118.99
66102;HTU21D;52883;51.094;5.880;2023-02-21T16:55:16;9.15;118.99
66102;HTU21D;52883;51.094;5.880;2023-02-21T16:57:49;9.12;118.99
66102;HTU21D;52883;51.094;5.880;2023-02-21T17:00:17;9.09;118.99
66102;HTU21D;52883;51.094;5.880;2023-02-21T17:02:46;9.07;118.99
66102;HTU21D;52883;51.094;5.880;2023-02-21T17:05:11;9.08;118.99
66102;HTU21D;52883;51.094;5.880;2023-02-21T17:07:37;9.04;118.99
66102;HTU21D;52883;51.094;5.880;2023-02-21T17:10:04;9.03;118.99
66102;HTU21D;52883;51.094;5.880;2023-02-21T17:12:29;9.00;118.99
66102;HTU21D;52883;51.094;5.880;2023-02-21T17:14:55;9.00;118.99
66102;HTU21D;52883;51.094;5.880;2023-02-21T17:17:21;9.01;118.99
66102;HTU21D;52883;51.094;5.880;2023-02-21T17:19:47;9.03;118.99
66102;HTU21D;52883;51.094;5.880;2023-02-21T17:22:12;9.04;118.99
66102;HTU21D;52883;51.094;5.880;2023-02-21T17:24:38;9.04;118.99
66102;HTU21D;52883;51.094;5.880;2023-02-21T17:27:04;9.02;118.99
66102;HTU21D;52883;51.094;5.880;2023-02-21T17:29:30;8.98;118.99
66102;HTU21D;52883;51.094;5.880;2023-02-21T17:31:55;8.96;118.99
66102;HTU21D;52883;51.094;5.880;2023-02-21T17:34:23;8.94;118.99
66102;HTU21D;52883;51.094;5.880;2023-02-21T17:36:50;8.90;118.99
66102;HTU21D;52883;51.094;5.880;2023-02-21T17:39:17;8.85;118.99
66102;HTU21D;52883;51.094;5.880;2023-02-21T17:41:47;8.79;118.99
66102;HTU21D;52883;51.094;5.880;2023-02-21T17:44:13;8.73;118.99
66102;HTU21D;52883;51.094;5.880;2023-02-21T17:46:44;8.68;118.99
66102;HTU21D;52883;51.094;5.880;2023-02-21T17:49:11;8.67;118.99
66102;HTU21D;52883;51.094;5.880;2023-02-21T17:51:36;8.67;118.99
66102;HTU21D;52883;51.094;5.880;2023-02-21T17:54:02;8.67;118.99
66102;HTU21D;52883;51.094;5.880;2023-02-21T17:56:27;8.63;118.99
66102;HTU21D;52883;51.094;5.880;2023-02-21T17:58:53;8.64;118.99
66102;HTU21D;52883;51.094;5.880;2023-02-21T18:01:20;8.62;118.99
66102;HTU21D;52883;51.094;5.880;2023-02-21T18:03:46;8.60;118.99
66102;HTU21D;52883;51.094;5.880;2023-02-21T18:06:13;8.59;118.99
66102;HTU21D;52883;51.094;5.880;2023-02-21T18:08:39;8.57;118.99
66102;HTU21D;52883;51.094;5.880;2023-02-21T18:11:09;8.56;118.99
66102;HTU21D;52883;51.094;5.880;2023-02-21T18:13:35;8.49;118.99
66102;HTU21D;52883;51.094;5.880;2023-02-21T18:16:01;8.42;118.99
66102;HTU21D;52883;51.094;5.880;2023-02-21T18:18:30;8.36;118.99
66102;HTU21D;52883;51.094;5.880;2023-02-21T18:20:55;8.36;118.99
66102;HTU21D;52883;51.094;5.880;2023-02-21T18:23:22;8.34;118.99
66102;HTU21D;52883;51.094;5.880;2023-02-21T18:25:48;8.34;118.99
66102;HTU21D;52883;51.094;5.880;2023-02-21T18:28:14;8.36;118.99
66102;HTU21D;52883;51.094;5.880;2023-02-21T18:30:39;8.34;118.99
66102;HTU21D;52883;51.094;5.880;2023-02-21T18:33:06;8.33;118.99